Flight Track Log - Related Links

Times and Time Zones

All times are in EST time to prevent confusion due to time zone crossing. See the UCA3596 flight status page for this flight to view local times or setup timezone preferences in your user account.


Time Position Orientation Groundspeed Altitude Reporting Facility
EST Latitude Longitude Course Direction KTS MPH feet Rate Location/Type
Thu 04:40:06 PM 42.2078 -76.0536 207° Southwest 161 185 4,400  Level New York Center
Thu 04:41:06 PM 42.1669 -76.0811 207° Southwest 166 191 5,900 1,513 Climbing New York Center
Thu 04:42:05 PM 42.1300 -76.1117 212° Southwest 166 191 7,400 1,500 Climbing New York Center
Thu 04:43:06 PM 42.0911 -76.1478 215° Southwest 171 197 8,900 1,488 Climbing New York Center
Thu 04:44:06 PM 42.0481 -76.1778 207° Southwest 176 203 10,400 1,600 Climbing New York Center
Thu 04:45:06 PM 41.9992 -76.2017 200° South 181 208 12,100 1,550 Climbing New York Center
Thu 04:46:06 PM 41.9542 -76.2286 204° Southwest 181 208 13,500 1,412 Climbing New York Center
Thu 04:47:05 PM 41.9069 -76.2553 203° Southwest 181 208 14,900 1,210 Climbing New York Center
Thu 04:48:05 PM 41.8622 -76.2794 202° Southwest 187 215 15,900 545 Climbing New York Center
Thu 04:49:06 PM 41.8044 -76.3136 204° Southwest 208 239 16,000 50 Climbing New York Center
Thu 04:50:05 PM 41.7317 -76.3550 203° Southwest 249 287 16,000  Level New York Center
Thu 04:51:05 PM 41.6675 -76.3911 203° Southwest 260 299 16,000  Level New York Center
Thu 04:52:06 PM 41.6011 -76.4300 204° Southwest 260 299 16,000  Level New York Center
Thu 04:53:05 PM 41.5456 -76.4614 203° Southwest 260 299 16,000  Level New York Center
Thu 04:54:06 PM 41.4747 -76.4997 202° Southwest 260 299 16,000  Level New York Center
Thu 04:55:06 PM 41.4125 -76.5386 205° Southwest 260 299 16,000  Level New York Center
Thu 04:56:06 PM 41.3483 -76.5719 201° Southwest 260 299 16,000  Level New York Center
Thu 04:57:05 PM 41.2928 -76.6031 203° Southwest 260 299 16,000  Level New York Center
Thu 04:58:06 PM 41.2286 -76.6361 201° Southwest 260 299 16,000  Level New York Center
Thu 04:59:05 PM 41.1642 -76.6744 204° Southwest 260 299 16,000  Level New York Center
Thu 05:00:05 PM 41.1019 -76.7131 205° Southwest 260 299 16,000  Level New York Center
Thu 05:01:05 PM 41.0397 -76.7464 202° Southwest 260 299 16,000  Level New York Center
Thu 05:02:06 PM 40.9756 -76.7819 203° Southwest 260 299 16,000  Level New York Center
Thu 05:03:05 PM 40.9067 -76.8225 204° Southwest 260 299 16,000  Level New York Center
Thu 05:04:06 PM 40.8489 -76.8503 200° South 255 293 16,000  Level New York Center
Thu 05:05:06 PM 40.7783 -76.8878 202° Southwest 255 293 16,000  Level New York Center
Thu 05:06:05 PM 40.7147 -76.9069 193° South 260 299 16,000  Level New York Center
Thu 05:07:06 PM 40.6428 -76.9306 194° South 260 299 16,000  Level New York Center
Thu 05:08:06 PM 40.5728 -76.9517 193° South 255 293 16,000  Level New York Center
Thu 05:09:05 PM 40.5050 -76.9728 193° South 255 293 16,000  Level New York Center
Thu 05:10:06 PM 40.4350 -76.9939 193° South 260 299 16,000 -149 Level New York Center
Thu 05:11:06 PM 40.3653 -77.0147 193° South 260 299 15,700 -600 Descending New York Center
Thu 05:12:06 PM 40.2931 -77.0408 195° South 271 312 14,800 -834 Descending New York Center
Thu 05:13:37 PM 40.1833 -77.0667 190° South 273 314 13,600 -764 Descending Potomac TRACON
Thu 05:14:43 PM 40.1167 -77.1000 201° Southwest 272 313 12,800 -800 Descending Potomac TRACON
Thu 05:15:37 PM 40.0333 -77.1167 189° South 268 308 12,000 -842 Descending Potomac TRACON
Thu 05:16:37 PM 39.9667 -77.1333 191° South 272 313 11,200 -762 Descending Potomac TRACON
Thu 05:17:43 PM 39.9000 -77.1667 201° Southwest 262 302 10,400 -800 Descending Potomac TRACON
Thu 05:18:37 PM 39.8333 -77.1833 191° South 254 292 9,600 -842 Descending Potomac TRACON
Thu 05:19:37 PM 39.7667 -77.2000 191° South 253 291 8,800 -793 Descending Potomac TRACON
Thu 05:20:38 PM 39.7000 -77.2333 201° Southwest 242 278 8,000 -793 Descending Potomac TRACON
Thu 05:21:38 PM 39.6333 -77.2667 201° Southwest 231 266 7,200 -504 Descending Potomac TRACON
Thu 05:22:37 PM 39.5667 -77.2833 191° South 224 258 7,000 -100 Descending Potomac TRACON
Thu 05:23:38 PM 39.5167 -77.3167 207° Southwest 221 254 7,000 -446 Level Potomac TRACON
Thu 05:24:38 PM 39.4500 -77.3500 201° Southwest 237 273 6,100 -947 Descending Potomac TRACON
Thu 05:25:32 PM 39.4000 -77.3667 194° South 217 250 5,200 -550 Descending Potomac TRACON
Thu 05:26:38 PM 39.3500 -77.4000 207° Southwest 214 246 5,000 -100 Descending Potomac TRACON
Thu 05:27:32 PM 39.2833 -77.4167 191° South 213 245 5,000  Level Potomac TRACON
Thu 05:28:38 PM 39.2333 -77.4500 207° Southwest 217 250 5,000 -200 Level Potomac TRACON
Thu 05:29:32 PM 39.1667 -77.4500 180° South 229 264 4,600 -900 Descending Potomac TRACON
Thu 05:30:38 PM 39.1167 -77.4500 180° South 191 220 3,200 -1,150 Descending Potomac TRACON
Thu 05:31:32 PM 39.0667 -77.4500 180° South 168 193 2,300 -850 Descending Potomac TRACON
Thu 05:32:38 PM 39.0333 -77.4667 201° Southwest 118 136 1,500 -700 Descending Potomac TRACON
Thu 05:33:32 PM 39.0000 -77.4667 180° South 108 124 900 -667 Descending Potomac TRACON
Thu 05:35:00 PM 38.9474 -77.4599 180° South  Level Estimated

Login

Don't have an account? Register now (free) for customized features, flight alerts, and more!